KQSI

2018-08-22 00:00:07Z

Plaintext report →

Current Status: Mist

Temperature
High37.0 °C98.6 °F
Current29.2 °C84.6 °F
Low31.6 °C88.9 °F
Feels Like40.4 °C104.7 °F
Dewpoint28.9 °C84.0 °F
Winds
Speed and Direction2.3 m/s5.1 mi/h 4 kn227 °
Gust0.0 m/s0.00 mi/h 0 kn
SquallUnavailable
Pressure and Humidity
Pressure At Field Level994.7 mb29.4 in
Pressure At Sea Level999.5 mb29.5 in
Pressure Trend-0.4 mb-0.0 in
Pressure Tendency 7
Humidity98 %

Station Alarms & Warnings:

Ceilometer Alarms / Warnings:

Ceilometer Data Missing!
Historical Weather Phenomenon Graphs

Additional Information:

  METAR KQSI 220000Z AUTO 23004KT BR NCD 29/29 A2937 RMK AO2 SLP995 10370
  20316 57003 $=    
Cloud Cover
Layer 1 Undetected
Layer 2 Undetected
Layer 3 Undetected
Winds
2-minute Winds
Minimum0.7 m/s1.57 mi/h 1 kn209 °
Average1.7 m/s3.80 mi/h 3 kn235 °
Maximum3.1 m/s6.93 mi/h 6 kn267 °
10-minute Winds
Minimum0.2 m/s0.45 mi/h 0 kn209 °
Average1.2 m/s2.68 mi/h 2 kn237 °
Maximum3.1 m/s6.93 mi/h 6 kn276 °
Precipitation
Intensity0.00 mm/h0.00 in/h
Rainfall
1-hour Total0.00 mm0.00 in
3-hour Total0.00 mm0.00 in
6-hour Total0.00 mm0.00 in
24-hour Total0.00 mm0.00 in
Precipitation
1-hour Total0.00 mm0.00 in
3-hour Total0.00 mm0.00 in
6-hour Total0.00 mm0.00 in
24-hour Total0.00 mm0.00 in